»·PEaware :: N847D KTSP-KUDD

N847D :: KTSP-KUDD

FLIGHT INFORMATION

Flight Status: Arrived
Operator: Privately registered:
United States
More flights under this callsign
Pilot: Ryan B. (8502)
Aircraft: BEECH AIRCRAFT A90-E90 KING AIR
(BE9L)
More flights by this aircraft type
Origin: KTSP Tehachapi Mun
United States
Destination: KUDD Bermuda Dunes
United States
More flights between these airports :: More routes between these airports
Route: FISCH V197 PMD V137 PSP
File this flight plan on PilotEdge
Remarks:
Altitude:
(Current/Filed)
19,000ft
Speed:
(Current/Filed)
200kts
Departed: 14-May-17 03:38 PM
Arrived: 14-May-17 04:21 PM
Distance/Time
Traveled:
136nm/0:42
Distance/Time
To Go:
Arrived

Flight Plot

Page will automatically refresh every two minutes.

Flight plan parsing failed; only flown route is shown


Map Options




Map Legend


Flown Route
Filed Route
Departure Airport
Arrival Airport
Navaid (VOR, NDB)
Fix

Horizontal Profiles

Position Reports

Time Latitude Longitude Heading Altitude Ground
Speed
14-May-17 15:30 35.133066 -118.437793 304 3987ft 0kts
14-May-17 15:31 35.133066 -118.437793 304 3987ft 0kts
14-May-17 15:32 35.133066 -118.437793 304 3987ft 0kts
14-May-17 15:33 35.133066 -118.437793 304 3987ft 0kts
14-May-17 15:34 35.133066 -118.437793 304 3987ft 0kts
14-May-17 15:35 35.133066 -118.437793 304 3987ft 0kts
14-May-17 15:36 35.133066 -118.437793 304 3987ft 0kts
14-May-17 15:37 35.133066 -118.437793 304 3987ft 0kts
14-May-17 15:38 35.132551 -118.436316 124 3991ft 17kts
14-May-17 15:39 35.131888 -118.433808 342 3998ft 8kts
14-May-17 15:40 35.138956 -118.446272 304 4286ft 111kts
14-May-17 15:41 35.119723 -118.461280 151 5972ft 157kts
14-May-17 15:42 35.082216 -118.438239 158 7839ft 149kts
14-May-17 15:43 35.046031 -118.417567 161 9548ft 149kts
14-May-17 15:44 35.006131 -118.394966 160 10667ft 173kts
14-May-17 15:45 34.959583 -118.368619 160 11368ft 191kts
14-May-17 15:46 34.911107 -118.341198 160 12052ft 193kts
14-May-17 15:47 34.869047 -118.317422 161 12657ft 190kts
14-May-17 15:48 34.821313 -118.290482 161 13358ft 188kts
14-May-17 15:49 34.778530 -118.254501 141 14058ft 194kts
14-May-17 15:50 34.741656 -118.207034 141 14757ft 193kts
14-May-17 15:51 34.705487 -118.160013 142 15452ft 191kts
14-May-17 15:52 34.669535 -118.113270 142 16150ft 189kts
14-May-17 15:53 34.633978 -118.067012 140 16847ft 188kts
14-May-17 15:54 34.607280 -118.010558 129 17551ft 193kts
14-May-17 15:55 34.581415 -117.954030 130 18252ft 191kts
14-May-17 15:56 34.555836 -117.898103 130 18870ft 193kts
14-May-17 15:57 34.528087 -117.837580 129 18897ft 216kts
14-May-17 15:58 34.498325 -117.772651 128 18905ft 223kts
14-May-17 15:59 34.468020 -117.706675 128 18904ft 226kts
14-May-17 16:00 34.437584 -117.640557 128 18896ft 228kts
14-May-17 16:01 34.406691 -117.573567 128 18883ft 230kts
14-May-17 16:02 34.375445 -117.505939 128 18889ft 230kts
14-May-17 16:03 34.344500 -117.439094 128 18897ft 230kts
14-May-17 16:04 34.313039 -117.371348 128 18618ft 243kts
14-May-17 16:05 34.280313 -117.300930 127 17576ft 257kts
14-May-17 16:06 34.245658 -117.226481 126 16588ft 253kts
14-May-17 16:07 34.212415 -117.155216 127 16163ft 238kts
14-May-17 16:08 34.180237 -117.086420 126 15746ft 234kts
14-May-17 16:09 34.148426 -117.018530 126 15333ft 231kts
14-May-17 16:10 34.116937 -116.951453 126 14923ft 229kts
14-May-17 16:11 34.085474 -116.884555 125 14511ft 228kts
14-May-17 16:12 34.054222 -116.818207 126 14111ft 227kts
14-May-17 16:13 34.023940 -116.754055 126 13951ft 222kts
14-May-17 16:14 33.991378 -116.685255 124 12759ft 245kts
14-May-17 16:15 33.957138 -116.612986 124 11553ft 250kts
14-May-17 16:16 33.922350 -116.539736 124 10313ft 256kts
14-May-17 16:17 33.889195 -116.470059 122 8607ft 272kts
14-May-17 16:18 33.844776 -116.397620 135 6723ft 271kts
14-May-17 16:19 33.793339 -116.333350 134 4590ft 255kts
14-May-17 16:20 33.737294 -116.296094 156 2006ft 199kts
14-May-17 16:21 33.726199 -116.257190 34 776ft 110kts
14-May-17 16:22 33.745738 -116.268191 301 67ft 87kts
14-May-17 16:23 33.745891 -116.271918 269 58ft 1kts
14-May-17 16:24 33.745891 -116.271919 269 58ft 0kts

Navigation Log

Ident Type
Flight plan parsing failed, navigation log unavailable